Accueil
METAR-TAF:

METAR-TAF

Aéroports :

Aéroport international de Yap

Yap, Micronésie

latitude: 09-29N, longitude: 138-05E, altitude: 28 m

Observation

Le bulletin a été fait il y a 38 minutes, à 05:50 UTC
Vent 7 kt de est/sud-est
Température 29°C
Humidité 79%
Pression 1011 hPa
Visibilité: 19.3 km
Quelques nuages à une hauteur de 1600 ft
Nuages épars à une hauteur de 13000 ft
Ciel couvert à une hauteur de 30000 ft

METAR: PTYA 210550Z 12007KT 12SM FEW016 SCT130 OVC300 29/25 A2985 RMK SLP108 60000 8/171 T02930251 10305 20287 55008

Heure: 16:28 (06:28 UTC)

Prévision

Le bulletin a été fait il y a 56 minutes, à 05:32 UTC
Prévision valable du 21 à 06 UTC au 22 à 06 UTC
Vent 7 kt de est
Visibilité: 10 km
Quelques nuages à une hauteur de 1600 ft
Nuages épars à une hauteur de 5000 ft
Nuages épars à une hauteur de 13000 ft
averses à proximité

TAF: PTYA 210532Z 2106/2206 10007KT P6SM VCSH FEW016 SCT050 SCT130

Observations et prévisions météorologiques de plus de 4000 aéroports (messages METAR et TAF).

Les stations disponibles sont représentées par des disques jaunes et rouges sur la carte.

Passer la souris dessus pour voir le nom de la station.

Cliquer dessus pour voir les observations et prévisions météorologiques.

Pour changer de carte: cliquez sur les boutons verts avec une croix noire pour zoomer, sur le bouton vert avec un tiret pour effectuer un zoom arrière, ou sur les flèches vertes pour les cartes adjacentes.


METAR-TAF: